Terminal Aerodrome Forecast
Issued by NWS

Home | Current Version | Previous Version | Text Only | Print | Product List | Glossary On
Versions: 1 2 3 4 5 6 7 8 9 10 11 12 13 14 15 16 17 18 19 20 21 22 23 24 25 26 27 28 29 30 31 32
468
FTUS41 KOKX 210529
TAFSWF
TAF
KSWF 210529Z 2106/2212 VRB02KT 3SM BR OVC009
      TEMPO 2108/2112 1/2SM FG OVC003
     FM211400 26004KT 5SM BR OVC010
     FM211800 26005KT P6SM BKN015
     FM220000 25003KT 5SM BR BKN010 OVC020
      TEMPO 2203/2206 1/2SM FG BKN010
      AMD NOT SKED=

USA.gov is the U.S. government's official web portal to all federal, state and local government web resources and services.